sensor_id;sensor_type;location;lat;lon;timestamp;P1;durP1;ratioP1;P2;durP2;ratioP2
31348;SDS011;17976;48.480;11.946;2023-03-07T08:32:49;16.05;;;7.35;;
31348;SDS011;17976;48.480;11.946;2023-03-07T08:35:16;12.77;;;6.18;;
31348;SDS011;17976;48.480;11.946;2023-03-07T08:37:42;14.82;;;7.78;;
31348;SDS011;17976;48.480;11.946;2023-03-07T08:40:08;15.18;;;6.95;;
31348;SDS011;17976;48.480;11.946;2023-03-07T08:42:34;15.23;;;6.88;;
31348;SDS011;17976;48.480;11.946;2023-03-07T08:45:00;12.23;;;6.82;;
31348;SDS011;17976;48.480;11.946;2023-03-07T08:47:26;13.05;;;7.25;;
31348;SDS011;17976;48.480;11.946;2023-03-07T08:49:52;15.25;;;6.80;;
31348;SDS011;17976;48.480;11.946;2023-03-07T08:52:18;13.10;;;6.80;;
31348;SDS011;17976;48.480;11.946;2023-03-07T08:54:44;15.05;;;7.45;;
31348;SDS011;17976;48.480;11.946;2023-03-07T08:57:10;16.45;;;7.47;;
31348;SDS011;17976;48.480;11.946;2023-03-07T08:59:36;13.00;;;7.38;;
31348;SDS011;17976;48.480;11.946;2023-03-07T09:02:02;12.52;;;7.35;;
31348;SDS011;17976;48.480;11.946;2023-03-07T09:04:28;13.07;;;6.70;;
31348;SDS011;17976;48.480;11.946;2023-03-07T09:06:54;12.02;;;6.15;;
31348;SDS011;17976;48.480;11.946;2023-03-07T09:09:21;15.52;;;8.30;;
31348;SDS011;17976;48.480;11.946;2023-03-07T09:11:47;12.85;;;6.72;;
31348;SDS011;17976;48.480;11.946;2023-03-07T09:14:13;12.38;;;6.72;;
31348;SDS011;17976;48.480;11.946;2023-03-07T09:16:39;11.27;;;6.28;;
31348;SDS011;17976;48.480;11.946;2023-03-07T09:19:05;12.18;;;6.15;;
31348;SDS011;17976;48.480;11.946;2023-03-07T09:21:31;13.52;;;6.25;;
31348;SDS011;17976;48.480;11.946;2023-03-07T09:23:57;12.65;;;6.78;;
31348;SDS011;17976;48.480;11.946;2023-03-07T09:26:23;11.85;;;6.55;;
31348;SDS011;17976;48.480;11.946;2023-03-07T09:28:49;13.18;;;5.95;;
31348;SDS011;17976;48.480;11.946;2023-03-07T09:31:15;9.77;;;5.68;;
31348;SDS011;17976;48.480;11.946;2023-03-07T09:33:41;11.18;;;6.13;;
31348;SDS011;17976;48.480;11.946;2023-03-07T09:36:08;10.43;;;6.47;;
31348;SDS011;17976;48.480;11.946;2023-03-07T09:38:35;10.30;;;5.85;;
31348;SDS011;17976;48.480;11.946;2023-03-07T09:41:13;9.00;;;5.57;;
31348;SDS011;17976;48.480;11.946;2023-03-07T09:43:57;8.82;;;5.63;;
31348;SDS011;17976;48.480;11.946;2023-03-07T09:46:40;10.20;;;5.80;;
31348;SDS011;17976;48.480;11.946;2023-03-07T09:49:18;9.50;;;5.47;;
31348;SDS011;17976;48.480;11.946;2023-03-07T09:51:45;11.93;;;5.13;;
31348;SDS011;17976;48.480;11.946;2023-03-07T10:02:13;9.73;;;5.85;;
31348;SDS011;17976;48.480;11.946;2023-03-07T10:04:41;9.55;;;5.65;;
31348;SDS011;17976;48.480;11.946;2023-03-07T10:07:08;7.50;;;5.00;;
31348;SDS011;17976;48.480;11.946;2023-03-07T10:09:34;8.63;;;4.85;;
31348;SDS011;17976;48.480;11.946;2023-03-07T10:12:04;9.50;;;4.68;;
31348;SDS011;17976;48.480;11.946;2023-03-07T10:20:11;6.35;;;4.50;;
31348;SDS011;17976;48.480;11.946;2023-03-07T10:22:44;7.15;;;4.53;;
31348;SDS011;17976;48.480;11.946;2023-03-07T10:27:48;7.30;;;4.72;;
31348;SDS011;17976;48.480;11.946;2023-03-07T10:30:17;8.50;;;4.65;;
31348;SDS011;17976;48.480;11.946;2023-03-07T10:37:41;9.68;;;4.53;;
31348;SDS011;17976;48.480;11.946;2023-03-07T10:40:22;9.52;;;5.10;;
31348;SDS011;17976;48.480;11.946;2023-03-07T10:42:49;7.57;;;4.75;;
31348;SDS011;17976;48.480;11.946;2023-03-07T10:45:15;6.47;;;4.60;;
31348;SDS011;17976;48.480;11.946;2023-03-07T10:47:41;6.72;;;4.70;;
31348;SDS011;17976;48.480;11.946;2023-03-07T10:52:41;10.18;;;4.80;;
31348;SDS011;17976;48.480;11.946;2023-03-07T10:58:11;7.72;;;4.32;;
31348;SDS011;17976;48.480;11.946;2023-03-07T11:00:38;10.27;;;5.53;;
31348;SDS011;17976;48.480;11.946;2023-03-07T11:03:04;8.10;;;5.07;;
31348;SDS011;17976;48.480;11.946;2023-03-07T11:05:33;8.55;;;5.40;;
31348;SDS011;17976;48.480;11.946;2023-03-07T11:08:18;10.05;;;5.53;;
31348;SDS011;17976;48.480;11.946;2023-03-07T11:10:45;6.68;;;4.55;;
31348;SDS011;17976;48.480;11.946;2023-03-07T11:13:15;11.15;;;6.22;;
31348;SDS011;17976;48.480;11.946;2023-03-07T11:15:41;7.22;;;5.15;;
31348;SDS011;17976;48.480;11.946;2023-03-07T11:18:23;9.13;;;5.82;;
31348;SDS011;17976;48.480;11.946;2023-03-07T11:20:50;13.55;;;5.75;;
31348;SDS011;17976;48.480;11.946;2023-03-07T11:23:23;10.75;;;6.40;;
31348;SDS011;17976;48.480;11.946;2023-03-07T11:25:54;8.13;;;5.07;;
31348;SDS011;17976;48.480;11.946;2023-03-07T11:33:24;11.80;;;6.13;;
31348;SDS011;17976;48.480;11.946;2023-03-07T11:41:10;11.45;;;6.90;;
31348;SDS011;17976;48.480;11.946;2023-03-07T11:54:25;10.75;;;6.32;;
31348;SDS011;17976;48.480;11.946;2023-03-07T11:56:43;11.25;;;6.78;;
31348;SDS011;17976;48.480;11.946;2023-03-07T11:59:15;11.80;;;6.88;;
31348;SDS011;17976;48.480;11.946;2023-03-07T12:15:06;10.93;;;7.07;;
31348;SDS011;17976;48.480;11.946;2023-03-07T12:20:34;11.90;;;7.00;;
31348;SDS011;17976;48.480;11.946;2023-03-07T12:23:45;13.20;;;7.10;;
31348;SDS011;17976;48.480;11.946;2023-03-07T12:25:52;10.07;;;6.63;;
31348;SDS011;17976;48.480;11.946;2023-03-07T12:28:26;16.98;;;7.13;;
31348;SDS011;17976;48.480;11.946;2023-03-07T12:33:49;10.65;;;6.53;;
31348;SDS011;17976;48.480;11.946;2023-03-07T12:36:21;10.48;;;6.47;;
31348;SDS011;17976;48.480;11.946;2023-03-07T12:38:54;14.85;;;6.85;;
31348;SDS011;17976;48.480;11.946;2023-03-07T12:43:55;9.88;;;6.63;;
31348;SDS011;17976;48.480;11.946;2023-03-07T12:46:59;16.15;;;7.32;;
31348;SDS011;17976;48.480;11.946;2023-03-07T12:49:18;9.70;;;6.63;;
31348;SDS011;17976;48.480;11.946;2023-03-07T12:51:46;9.32;;;6.30;;
31348;SDS011;17976;48.480;11.946;2023-03-07T12:54:17;9.88;;;6.43;;
31348;SDS011;17976;48.480;11.946;2023-03-07T12:56:58;9.88;;;6.22;;
31348;SDS011;17976;48.480;11.946;2023-03-07T12:59:26;9.20;;;6.20;;
31348;SDS011;17976;48.480;11.946;2023-03-07T13:01:59;11.43;;;6.88;;
31348;SDS011;17976;48.480;11.946;2023-03-07T13:04:27;12.32;;;6.32;;
31348;SDS011;17976;48.480;11.946;2023-03-07T13:06:58;10.60;;;5.90;;
31348;SDS011;17976;48.480;11.946;2023-03-07T13:09:25;9.13;;;5.95;;
31348;SDS011;17976;48.480;11.946;2023-03-07T13:14:40;10.98;;;6.35;;
31348;SDS011;17976;48.480;11.946;2023-03-07T13:17:10;8.75;;;6.00;;
31348;SDS011;17976;48.480;11.946;2023-03-07T13:24:41;9.65;;;6.32;;
31348;SDS011;17976;48.480;11.946;2023-03-07T13:35:12;8.75;;;5.65;;
31348;SDS011;17976;48.480;11.946;2023-03-07T13:37:57;8.77;;;5.82;;
31348;SDS011;17976;48.480;11.946;2023-03-07T13:42:49;8.80;;;5.82;;
31348;SDS011;17976;48.480;11.946;2023-03-07T13:48:00;10.18;;;6.38;;
31348;SDS011;17976;48.480;11.946;2023-03-07T13:53:12;11.00;;;6.00;;
31348;SDS011;17976;48.480;11.946;2023-03-07T13:55:40;9.68;;;6.40;;
31348;SDS011;17976;48.480;11.946;2023-03-07T13:58:21;11.38;;;6.25;;
31348;SDS011;17976;48.480;11.946;2023-03-07T14:00:49;12.00;;;6.82;;
31348;SDS011;17976;48.480;11.946;2023-03-07T14:03:21;10.57;;;6.03;;
31348;SDS011;17976;48.480;11.946;2023-03-07T14:05:48;10.32;;;6.28;;
31348;SDS011;17976;48.480;11.946;2023-03-07T14:08:14;12.77;;;6.97;;
31348;SDS011;17976;48.480;11.946;2023-03-07T14:10:40;11.18;;;6.38;;
31348;SDS011;17976;48.480;11.946;2023-03-07T14:13:17;9.98;;;6.05;;
31348;SDS011;17976;48.480;11.946;2023-03-07T14:18:19;10.52;;;6.55;;
31348;SDS011;17976;48.480;11.946;2023-03-07T14:28:57;11.60;;;6.45;;
31348;SDS011;17976;48.480;11.946;2023-03-07T14:31:25;14.32;;;6.63;;
31348;SDS011;17976;48.480;11.946;2023-03-07T14:33:51;9.20;;;6.53;;
31348;SDS011;17976;48.480;11.946;2023-03-07T14:38:44;9.82;;;6.45;;
31348;SDS011;17976;48.480;11.946;2023-03-07T14:41:19;11.98;;;6.60;;
31348;SDS011;17976;48.480;11.946;2023-03-07T14:43:53;12.23;;;6.78;;
31348;SDS011;17976;48.480;11.946;2023-03-07T14:46:29;11.38;;;6.80;;
31348;SDS011;17976;48.480;11.946;2023-03-07T14:49:22;15.63;;;7.30;;
31348;SDS011;17976;48.480;11.946;2023-03-07T14:51:52;13.68;;;7.18;;
31348;SDS011;17976;48.480;11.946;2023-03-07T14:54:18;10.30;;;5.78;;
31348;SDS011;17976;48.480;11.946;2023-03-07T14:56:45;11.55;;;6.72;;
31348;SDS011;17976;48.480;11.946;2023-03-07T14:59:15;11.57;;;6.65;;
31348;SDS011;17976;48.480;11.946;2023-03-07T15:01:41;9.50;;;5.78;;
31348;SDS011;17976;48.480;11.946;2023-03-07T15:04:29;14.27;;;7.43;;
31348;SDS011;17976;48.480;11.946;2023-03-07T15:07:00;11.13;;;6.47;;
31348;SDS011;17976;48.480;11.946;2023-03-07T15:09:28;11.88;;;6.90;;
31348;SDS011;17976;48.480;11.946;2023-03-07T15:14:27;11.80;;;7.32;;
31348;SDS011;17976;48.480;11.946;2023-03-07T15:16:59;15.70;;;7.40;;
31348;SDS011;17976;48.480;11.946;2023-03-07T15:21:56;11.05;;;6.93;;
31348;SDS011;17976;48.480;11.946;2023-03-07T15:24:30;12.75;;;6.60;;
31348;SDS011;17976;48.480;11.946;2023-03-07T15:26:57;13.27;;;6.85;;
31348;SDS011;17976;48.480;11.946;2023-03-07T15:29:25;17.33;;;7.93;;
31348;SDS011;17976;48.480;11.946;2023-03-07T15:32:02;16.55;;;8.15;;
31348;SDS011;17976;48.480;11.946;2023-03-07T15:34:34;12.65;;;7.80;;
31348;SDS011;17976;48.480;11.946;2023-03-07T15:37:20;14.38;;;7.38;;
31348;SDS011;17976;48.480;11.946;2023-03-07T15:40:13;14.80;;;7.10;;
31348;SDS011;17976;48.480;11.946;2023-03-07T15:42:53;12.85;;;6.53;;
31348;SDS011;17976;48.480;11.946;2023-03-07T15:45:36;15.88;;;7.53;;
31348;SDS011;17976;48.480;11.946;2023-03-07T15:50:49;14.20;;;7.97;;
31348;SDS011;17976;48.480;11.946;2023-03-07T15:53:22;12.65;;;6.95;;
31348;SDS011;17976;48.480;11.946;2023-03-07T15:55:56;12.73;;;7.47;;
31348;SDS011;17976;48.480;11.946;2023-03-07T15:58:22;12.93;;;6.60;;
31348;SDS011;17976;48.480;11.946;2023-03-07T16:00:54;12.48;;;6.93;;
31348;SDS011;17976;48.480;11.946;2023-03-07T16:03:28;12.43;;;7.18;;
31348;SDS011;17976;48.480;11.946;2023-03-07T16:05:55;13.30;;;7.10;;
31348;SDS011;17976;48.480;11.946;2023-03-07T16:08:21;13.00;;;7.22;;
31348;SDS011;17976;48.480;11.946;2023-03-07T16:10:53;12.65;;;7.10;;
31348;SDS011;17976;48.480;11.946;2023-03-07T16:13:22;12.97;;;7.37;;
31348;SDS011;17976;48.480;11.946;2023-03-07T16:16:00;16.45;;;7.13;;
31348;SDS011;17976;48.480;11.946;2023-03-07T16:18:27;17.17;;;7.55;;
31348;SDS011;17976;48.480;11.946;2023-03-07T16:20:53;12.02;;;6.88;;
31348;SDS011;17976;48.480;11.946;2023-03-07T16:23:20;14.15;;;7.35;;
31348;SDS011;17976;48.480;11.946;2023-03-07T16:25:45;14.15;;;7.05;;
31348;SDS011;17976;48.480;11.946;2023-03-07T16:28:11;18.08;;;7.97;;
31348;SDS011;17976;48.480;11.946;2023-03-07T16:30:39;14.88;;;7.53;;
31348;SDS011;17976;48.480;11.946;2023-03-07T16:33:08;12.95;;;7.32;;
31348;SDS011;17976;48.480;11.946;2023-03-07T16:35:34;20.35;;;8.00;;
31348;SDS011;17976;48.480;11.946;2023-03-07T16:38:00;15.02;;;7.07;;
31348;SDS011;17976;48.480;11.946;2023-03-07T16:40:30;19.08;;;7.65;;
31348;SDS011;17976;48.480;11.946;2023-03-07T16:42:56;13.27;;;7.57;;
31348;SDS011;17976;48.480;11.946;2023-03-07T16:45:23;11.95;;;6.82;;
31348;SDS011;17976;48.480;11.946;2023-03-07T16:47:50;16.30;;;7.68;;
31348;SDS011;17976;48.480;11.946;2023-03-07T16:50:17;14.82;;;7.53;;
31348;SDS011;17976;48.480;11.946;2023-03-07T16:52:44;12.73;;;7.03;;
31348;SDS011;17976;48.480;11.946;2023-03-07T16:55:10;14.30;;;7.35;;
31348;SDS011;17976;48.480;11.946;2023-03-07T16:57:37;12.18;;;7.55;;
31348;SDS011;17976;48.480;11.946;2023-03-07T17:00:04;14.07;;;6.68;;
31348;SDS011;17976;48.480;11.946;2023-03-07T17:02:30;15.13;;;7.15;;
31348;SDS011;17976;48.480;11.946;2023-03-07T17:04:56;13.02;;;7.43;;
31348;SDS011;17976;48.480;11.946;2023-03-07T17:07:22;15.73;;;7.93;;
31348;SDS011;17976;48.480;11.946;2023-03-07T17:09:48;13.70;;;8.15;;
31348;SDS011;17976;48.480;11.946;2023-03-07T17:12:14;19.90;;;9.88;;
31348;SDS011;17976;48.480;11.946;2023-03-07T17:14:41;19.33;;;10.63;;
31348;SDS011;17976;48.480;11.946;2023-03-07T17:17:08;22.02;;;10.57;;
31348;SDS011;17976;48.480;11.946;2023-03-07T17:19:35;23.45;;;11.15;;
31348;SDS011;17976;48.480;11.946;2023-03-07T17:22:01;23.48;;;11.07;;
31348;SDS011;17976;48.480;11.946;2023-03-07T17:24:27;22.00;;;9.48;;
31348;SDS011;17976;48.480;11.946;2023-03-07T17:26:53;16.95;;;9.13;;
31348;SDS011;17976;48.480;11.946;2023-03-07T17:29:23;19.33;;;8.60;;
31348;SDS011;17976;48.480;11.946;2023-03-07T17:31:50;16.45;;;8.50;;
31348;SDS011;17976;48.480;11.946;2023-03-07T17:34:18;22.20;;;9.43;;
31348;SDS011;17976;48.480;11.946;2023-03-07T17:36:47;19.10;;;10.30;;
31348;SDS011;17976;48.480;11.946;2023-03-07T17:39:12;20.92;;;10.05;;
31348;SDS011;17976;48.480;11.946;2023-03-07T17:41:38;19.42;;;9.30;;
31348;SDS011;17976;48.480;11.946;2023-03-07T17:44:04;16.73;;;8.90;;
31348;SDS011;17976;48.480;11.946;2023-03-07T17:46:30;17.60;;;8.40;;
31348;SDS011;17976;48.480;11.946;2023-03-07T17:48:56;17.40;;;9.20;;
31348;SDS011;17976;48.480;11.946;2023-03-07T17:51:22;17.85;;;8.43;;
31348;SDS011;17976;48.480;11.946;2023-03-07T17:53:48;17.08;;;9.05;;
31348;SDS011;17976;48.480;11.946;2023-03-07T17:56:14;15.88;;;8.95;;
31348;SDS011;17976;48.480;11.946;2023-03-07T17:58:40;20.00;;;8.10;;
31348;SDS011;17976;48.480;11.946;2023-03-07T18:01:07;18.52;;;8.32;;
31348;SDS011;17976;48.480;11.946;2023-03-07T18:03:35;19.17;;;8.43;;
31348;SDS011;17976;48.480;11.946;2023-03-07T18:06:01;20.52;;;8.60;;
31348;SDS011;17976;48.480;11.946;2023-03-07T18:08:27;15.27;;;8.32;;
31348;SDS011;17976;48.480;11.946;2023-03-07T18:10:53;20.27;;;8.52;;
31348;SDS011;17976;48.480;11.946;2023-03-07T18:13:19;15.73;;;7.70;;
31348;SDS011;17976;48.480;11.946;2023-03-07T18:15:48;17.52;;;8.38;;
31348;SDS011;17976;48.480;11.946;2023-03-07T18:18:14;16.20;;;8.50;;
31348;SDS011;17976;48.480;11.946;2023-03-07T18:20:40;16.83;;;8.40;;
31348;SDS011;17976;48.480;11.946;2023-03-07T18:23:06;17.02;;;8.30;;
31348;SDS011;17976;48.480;11.946;2023-03-07T18:25:32;23.45;;;9.73;;
31348;SDS011;17976;48.480;11.946;2023-03-07T18:27:59;17.15;;;8.05;;
31348;SDS011;17976;48.480;11.946;2023-03-07T18:30:26;124.50;;;49.25;;
31348;SDS011;17976;48.480;11.946;2023-03-07T18:32:52;56.33;;;25.88;;
31348;SDS011;17976;48.480;11.946;2023-03-07T18:35:19;49.60;;;20.38;;
31348;SDS011;17976;48.480;11.946;2023-03-07T18:37:45;23.65;;;11.32;;
31348;SDS011;17976;48.480;11.946;2023-03-07T18:40:11;22.23;;;11.18;;
31348;SDS011;17976;48.480;11.946;2023-03-07T18:42:37;19.48;;;9.50;;
31348;SDS011;17976;48.480;11.946;2023-03-07T18:45:04;19.80;;;10.40;;
31348;SDS011;17976;48.480;11.946;2023-03-07T18:47:30;23.25;;;10.57;;
31348;SDS011;17976;48.480;11.946;2023-03-07T18:49:56;23.23;;;11.40;;
31348;SDS011;17976;48.480;11.946;2023-03-07T18:52:22;19.13;;;10.75;;
31348;SDS011;17976;48.480;11.946;2023-03-07T18:54:48;24.00;;;11.48;;
31348;SDS011;17976;48.480;11.946;2023-03-07T18:57:14;28.40;;;10.63;;
31348;SDS011;17976;48.480;11.946;2023-03-07T18:59:40;22.45;;;11.02;;
31348;SDS011;17976;48.480;11.946;2023-03-07T19:02:07;25.55;;;10.63;;
31348;SDS011;17976;48.480;11.946;2023-03-07T19:04:33;16.90;;;8.63;;
31348;SDS011;17976;48.480;11.946;2023-03-07T19:06:59;18.50;;;9.05;;
31348;SDS011;17976;48.480;11.946;2023-03-07T19:09:27;15.77;;;8.05;;
31348;SDS011;17976;48.480;11.946;2023-03-07T19:11:55;19.70;;;8.20;;
31348;SDS011;17976;48.480;11.946;2023-03-07T19:14:21;20.38;;;8.27;;
31348;SDS011;17976;48.480;11.946;2023-03-07T19:16:47;18.33;;;9.45;;
31348;SDS011;17976;48.480;11.946;2023-03-07T19:19:13;21.80;;;9.25;;
31348;SDS011;17976;48.480;11.946;2023-03-07T19:21:39;15.27;;;8.05;;
31348;SDS011;17976;48.480;11.946;2023-03-07T19:24:05;18.38;;;9.60;;
31348;SDS011;17976;48.480;11.946;2023-03-07T19:26:31;20.45;;;9.43;;
31348;SDS011;17976;48.480;11.946;2023-03-07T19:28:57;17.95;;;9.30;;
31348;SDS011;17976;48.480;11.946;2023-03-07T19:31:27;19.20;;;9.60;;
31348;SDS011;17976;48.480;11.946;2023-03-07T19:33:54;20.25;;;9.70;;
31348;SDS011;17976;48.480;11.946;2023-03-07T19:36:24;18.60;;;9.05;;
31348;SDS011;17976;48.480;11.946;2023-03-07T19:38:51;16.63;;;7.70;;
31348;SDS011;17976;48.480;11.946;2023-03-07T19:41:19;15.00;;;8.27;;
31348;SDS011;17976;48.480;11.946;2023-03-07T19:43:45;20.73;;;8.07;;
31348;SDS011;17976;48.480;11.946;2023-03-07T19:46:12;21.67;;;8.60;;
31348;SDS011;17976;48.480;11.946;2023-03-07T19:48:38;19.48;;;8.55;;
31348;SDS011;17976;48.480;11.946;2023-03-07T19:51:10;25.10;;;12.85;;
31348;SDS011;17976;48.480;11.946;2023-03-07T19:53:36;27.98;;;13.82;;
31348;SDS011;17976;48.480;11.946;2023-03-07T19:56:09;27.70;;;13.65;;
31348;SDS011;17976;48.480;11.946;2023-03-07T19:58:36;20.63;;;11.38;;
31348;SDS011;17976;48.480;11.946;2023-03-07T20:01:05;19.52;;;10.27;;
31348;SDS011;17976;48.480;11.946;2023-03-07T20:03:32;17.48;;;8.85;;
31348;SDS011;17976;48.480;11.946;2023-03-07T20:05:58;19.88;;;10.50;;
31348;SDS011;17976;48.480;11.946;2023-03-07T20:08:24;17.50;;;9.63;;
31348;SDS011;17976;48.480;11.946;2023-03-07T20:10:50;21.00;;;10.13;;
31348;SDS011;17976;48.480;11.946;2023-03-07T20:13:16;20.65;;;9.73;;
31348;SDS011;17976;48.480;11.946;2023-03-07T20:15:48;23.52;;;10.68;;
31348;SDS011;17976;48.480;11.946;2023-03-07T20:18:15;17.30;;;9.40;;
31348;SDS011;17976;48.480;11.946;2023-03-07T20:20:41;28.77;;;12.65;;
31348;SDS011;17976;48.480;11.946;2023-03-07T20:23:07;47.13;;;18.08;;
31348;SDS011;17976;48.480;11.946;2023-03-07T20:25:34;44.85;;;17.70;;
31348;SDS011;17976;48.480;11.946;2023-03-07T20:28:00;38.80;;;17.98;;
31348;SDS011;17976;48.480;11.946;2023-03-07T20:30:26;34.10;;;14.80;;
31348;SDS011;17976;48.480;11.946;2023-03-07T20:32:52;25.55;;;11.43;;
31348;SDS011;17976;48.480;11.946;2023-03-07T20:35:18;25.63;;;10.25;;
31348;SDS011;17976;48.480;11.946;2023-03-07T20:37:44;17.17;;;9.98;;
31348;SDS011;17976;48.480;11.946;2023-03-07T20:40:10;18.75;;;9.70;;
31348;SDS011;17976;48.480;11.946;2023-03-07T20:42:36;16.38;;;9.65;;
31348;SDS011;17976;48.480;11.946;2023-03-07T20:45:02;16.27;;;8.48;;
31348;SDS011;17976;48.480;11.946;2023-03-07T20:47:28;21.30;;;9.98;;
31348;SDS011;17976;48.480;11.946;2023-03-07T20:49:56;17.67;;;8.77;;
31348;SDS011;17976;48.480;11.946;2023-03-07T20:52:22;26.55;;;9.30;;
31348;SDS011;17976;48.480;11.946;2023-03-07T20:54:49;17.80;;;8.38;;
31348;SDS011;17976;48.480;11.946;2023-03-07T20:57:15;19.83;;;8.48;;
31348;SDS011;17976;48.480;11.946;2023-03-07T20:59:41;18.05;;;9.20;;
